sensor_id;sensor_type;location;lat;lon;timestamp;P1;durP1;ratioP1;P2;durP2;ratioP2
43801;SDS011;29429;51.074;13.764;2023-06-14T00:00:47;4.75;;;2.30;;
43801;SDS011;29429;51.074;13.764;2023-06-14T00:03:15;2.88;;;1.80;;
43801;SDS011;29429;51.074;13.764;2023-06-14T00:05:44;3.33;;;2.25;;
43801;SDS011;29429;51.074;13.764;2023-06-14T00:08:13;2.75;;;1.80;;
43801;SDS011;29429;51.074;13.764;2023-06-14T00:10:41;3.05;;;2.15;;
43801;SDS011;29429;51.074;13.764;2023-06-14T00:13:09;2.40;;;1.80;;
43801;SDS011;29429;51.074;13.764;2023-06-14T00:15:36;4.13;;;1.83;;
43801;SDS011;29429;51.074;13.764;2023-06-14T00:18:04;2.95;;;2.05;;
43801;SDS011;29429;51.074;13.764;2023-06-14T00:20:32;6.90;;;2.20;;
43801;SDS011;29429;51.074;13.764;2023-06-14T00:23:00;3.45;;;1.85;;
43801;SDS011;29429;51.074;13.764;2023-06-14T00:25:27;3.20;;;2.10;;
43801;SDS011;29429;51.074;13.764;2023-06-14T00:27:56;5.05;;;2.22;;
43801;SDS011;29429;51.074;13.764;2023-06-14T00:30:24;5.32;;;2.28;;
43801;SDS011;29429;51.074;13.764;2023-06-14T00:32:51;3.80;;;2.30;;
43801;SDS011;29429;51.074;13.764;2023-06-14T00:35:19;3.88;;;2.00;;
43801;SDS011;29429;51.074;13.764;2023-06-14T00:37:46;2.92;;;1.77;;
43801;SDS011;29429;51.074;13.764;2023-06-14T00:40:13;3.60;;;2.33;;
43801;SDS011;29429;51.074;13.764;2023-06-14T00:42:40;3.97;;;2.33;;
43801;SDS011;29429;51.074;13.764;2023-06-14T00:45:09;3.42;;;2.42;;
43801;SDS011;29429;51.074;13.764;2023-06-14T00:47:36;6.95;;;2.58;;
43801;SDS011;29429;51.074;13.764;2023-06-14T00:50:08;2.97;;;1.98;;
43801;SDS011;29429;51.074;13.764;2023-06-14T00:52:36;3.00;;;2.15;;
43801;SDS011;29429;51.074;13.764;2023-06-14T00:55:04;4.57;;;2.15;;
43801;SDS011;29429;51.074;13.764;2023-06-14T00:57:32;2.90;;;2.00;;
43801;SDS011;29429;51.074;13.764;2023-06-14T00:59:59;5.40;;;2.53;;
43801;SDS011;29429;51.074;13.764;2023-06-14T01:02:26;3.90;;;1.85;;
43801;SDS011;29429;51.074;13.764;2023-06-14T01:04:53;3.13;;;1.90;;
43801;SDS011;29429;51.074;13.764;2023-06-14T01:13:16;3.30;;;2.30;;
43801;SDS011;29429;51.074;13.764;2023-06-14T01:15:55;4.03;;;2.65;;
43801;SDS011;29429;51.074;13.764;2023-06-14T01:18:23;3.50;;;2.33;;
43801;SDS011;29429;51.074;13.764;2023-06-14T01:20:53;2.92;;;2.13;;
43801;SDS011;29429;51.074;13.764;2023-06-14T01:23:24;2.78;;;1.85;;
43801;SDS011;29429;51.074;13.764;2023-06-14T01:25:59;3.67;;;2.33;;
43801;SDS011;29429;51.074;13.764;2023-06-14T01:28:30;4.20;;;2.50;;
43801;SDS011;29429;51.074;13.764;2023-06-14T01:31:00;5.30;;;2.50;;
43801;SDS011;29429;51.074;13.764;2023-06-14T01:33:32;2.80;;;1.95;;
43801;SDS011;29429;51.074;13.764;2023-06-14T01:36:02;4.53;;;2.30;;
43801;SDS011;29429;51.074;13.764;2023-06-14T01:38:32;3.85;;;2.28;;
43801;SDS011;29429;51.074;13.764;2023-06-14T01:40:59;3.05;;;2.28;;
43801;SDS011;29429;51.074;13.764;2023-06-14T01:43:29;3.55;;;2.67;;
43801;SDS011;29429;51.074;13.764;2023-06-14T01:45:59;2.83;;;2.15;;
43801;SDS011;29429;51.074;13.764;2023-06-14T01:48:27;2.95;;;2.40;;
43801;SDS011;29429;51.074;13.764;2023-06-14T01:50:54;5.80;;;2.55;;
43801;SDS011;29429;51.074;13.764;2023-06-14T01:53:21;5.15;;;2.70;;
43801;SDS011;29429;51.074;13.764;2023-06-14T01:55:48;3.10;;;2.25;;
43801;SDS011;29429;51.074;13.764;2023-06-14T01:58:15;7.25;;;2.67;;
43801;SDS011;29429;51.074;13.764;2023-06-14T02:00:43;3.08;;;2.40;;
43801;SDS011;29429;51.074;13.764;2023-06-14T02:03:10;2.92;;;2.13;;
43801;SDS011;29429;51.074;13.764;2023-06-14T02:05:39;2.60;;;1.80;;
43801;SDS011;29429;51.074;13.764;2023-06-14T02:08:06;3.30;;;2.28;;
43801;SDS011;29429;51.074;13.764;2023-06-14T02:10:33;3.88;;;2.17;;
43801;SDS011;29429;51.074;13.764;2023-06-14T02:13:02;3.20;;;2.60;;
43801;SDS011;29429;51.074;13.764;2023-06-14T02:15:29;4.30;;;2.50;;
43801;SDS011;29429;51.074;13.764;2023-06-14T02:18:03;3.15;;;2.47;;
43801;SDS011;29429;51.074;13.764;2023-06-14T02:20:32;3.15;;;2.25;;
43801;SDS011;29429;51.074;13.764;2023-06-14T02:22:59;3.75;;;2.25;;
43801;SDS011;29429;51.074;13.764;2023-06-14T02:25:30;4.45;;;2.40;;
43801;SDS011;29429;51.074;13.764;2023-06-14T02:27:57;4.53;;;2.80;;
43801;SDS011;29429;51.074;13.764;2023-06-14T02:30:24;6.45;;;2.85;;
43801;SDS011;29429;51.074;13.764;2023-06-14T02:32:54;4.25;;;2.45;;
43801;SDS011;29429;51.074;13.764;2023-06-14T02:35:21;4.35;;;2.53;;
43801;SDS011;29429;51.074;13.764;2023-06-14T02:37:50;4.28;;;3.03;;
43801;SDS011;29429;51.074;13.764;2023-06-14T02:40:21;6.50;;;2.78;;
43801;SDS011;29429;51.074;13.764;2023-06-14T02:42:49;4.93;;;3.00;;
43801;SDS011;29429;51.074;13.764;2023-06-14T02:45:16;2.92;;;2.60;;
43801;SDS011;29429;51.074;13.764;2023-06-14T02:47:44;5.13;;;3.13;;
43801;SDS011;29429;51.074;13.764;2023-06-14T02:50:12;6.90;;;3.42;;
43801;SDS011;29429;51.074;13.764;2023-06-14T02:52:40;4.22;;;3.20;;
43801;SDS011;29429;51.074;13.764;2023-06-14T02:55:10;3.42;;;2.92;;
43801;SDS011;29429;51.074;13.764;2023-06-14T02:57:38;3.65;;;3.05;;
43801;SDS011;29429;51.074;13.764;2023-06-14T03:00:07;4.70;;;3.60;;
43801;SDS011;29429;51.074;13.764;2023-06-14T03:02:36;5.32;;;3.20;;
43801;SDS011;29429;51.074;13.764;2023-06-14T03:05:04;4.70;;;3.40;;
43801;SDS011;29429;51.074;13.764;2023-06-14T03:07:34;4.93;;;3.42;;
43801;SDS011;29429;51.074;13.764;2023-06-14T03:10:03;5.50;;;3.53;;
43801;SDS011;29429;51.074;13.764;2023-06-14T03:12:30;5.50;;;3.20;;
43801;SDS011;29429;51.074;13.764;2023-06-14T03:14:57;4.38;;;3.00;;
43801;SDS011;29429;51.074;13.764;2023-06-14T03:17:31;4.65;;;3.03;;
43801;SDS011;29429;51.074;13.764;2023-06-14T03:20:00;5.60;;;3.35;;
43801;SDS011;29429;51.074;13.764;2023-06-14T03:22:27;3.08;;;2.42;;
43801;SDS011;29429;51.074;13.764;2023-06-14T03:24:55;4.80;;;2.85;;
43801;SDS011;29429;51.074;13.764;2023-06-14T03:27:21;4.28;;;3.08;;
43801;SDS011;29429;51.074;13.764;2023-06-14T03:29:49;4.03;;;3.25;;
43801;SDS011;29429;51.074;13.764;2023-06-14T03:32:16;4.93;;;3.13;;
43801;SDS011;29429;51.074;13.764;2023-06-14T03:34:43;5.10;;;2.78;;
43801;SDS011;29429;51.074;13.764;2023-06-14T03:37:19;4.50;;;2.85;;
43801;SDS011;29429;51.074;13.764;2023-06-14T03:39:47;3.70;;;2.92;;
43801;SDS011;29429;51.074;13.764;2023-06-14T03:42:19;4.80;;;3.28;;
43801;SDS011;29429;51.074;13.764;2023-06-14T03:44:47;4.55;;;2.78;;
43801;SDS011;29429;51.074;13.764;2023-06-14T03:47:15;5.75;;;3.42;;
43801;SDS011;29429;51.074;13.764;2023-06-14T03:49:43;5.25;;;3.20;;
43801;SDS011;29429;51.074;13.764;2023-06-14T03:52:10;4.88;;;2.78;;
43801;SDS011;29429;51.074;13.764;2023-06-14T03:54:39;3.70;;;3.30;;
43801;SDS011;29429;51.074;13.764;2023-06-14T03:57:29;3.60;;;3.00;;
43801;SDS011;29429;51.074;13.764;2023-06-14T03:59:57;4.25;;;3.15;;
43801;SDS011;29429;51.074;13.764;2023-06-14T04:02:25;5.90;;;4.10;;
43801;SDS011;29429;51.074;13.764;2023-06-14T04:04:55;5.63;;;4.03;;
43801;SDS011;29429;51.074;13.764;2023-06-14T04:07:22;5.65;;;4.13;;
43801;SDS011;29429;51.074;13.764;2023-06-14T04:09:49;4.32;;;3.45;;
43801;SDS011;29429;51.074;13.764;2023-06-14T04:12:17;5.53;;;3.75;;
43801;SDS011;29429;51.074;13.764;2023-06-14T04:14:44;5.63;;;3.72;;
43801;SDS011;29429;51.074;13.764;2023-06-14T04:17:11;4.38;;;3.60;;
43801;SDS011;29429;51.074;13.764;2023-06-14T04:19:42;4.60;;;3.38;;
43801;SDS011;29429;51.074;13.764;2023-06-14T04:22:09;5.53;;;3.72;;
43801;SDS011;29429;51.074;13.764;2023-06-14T04:24:38;5.30;;;3.50;;
43801;SDS011;29429;51.074;13.764;2023-06-14T04:27:05;7.50;;;3.33;;
43801;SDS011;29429;51.074;13.764;2023-06-14T04:29:34;3.95;;;3.45;;
43801;SDS011;29429;51.074;13.764;2023-06-14T04:32:05;3.92;;;3.30;;
43801;SDS011;29429;51.074;13.764;2023-06-14T04:34:37;7.05;;;4.13;;
43801;SDS011;29429;51.074;13.764;2023-06-14T04:37:06;5.40;;;4.25;;
43801;SDS011;29429;51.074;13.764;2023-06-14T04:39:36;6.13;;;4.28;;
43801;SDS011;29429;51.074;13.764;2023-06-14T04:42:04;5.07;;;3.63;;
43801;SDS011;29429;51.074;13.764;2023-06-14T04:44:33;6.38;;;4.03;;
43801;SDS011;29429;51.074;13.764;2023-06-14T04:47:02;6.28;;;4.20;;
43801;SDS011;29429;51.074;13.764;2023-06-14T04:49:30;7.00;;;4.53;;
43801;SDS011;29429;51.074;13.764;2023-06-14T04:51:59;6.05;;;3.70;;
43801;SDS011;29429;51.074;13.764;2023-06-14T04:54:33;9.32;;;4.50;;
43801;SDS011;29429;51.074;13.764;2023-06-14T04:57:05;5.32;;;3.70;;
43801;SDS011;29429;51.074;13.764;2023-06-14T04:59:32;9.93;;;4.45;;
43801;SDS011;29429;51.074;13.764;2023-06-14T05:02:01;8.60;;;3.92;;
43801;SDS011;29429;51.074;13.764;2023-06-14T05:04:28;15.45;;;4.80;;
43801;SDS011;29429;51.074;13.764;2023-06-14T05:06:57;6.28;;;4.07;;
43801;SDS011;29429;51.074;13.764;2023-06-14T05:09:24;7.03;;;4.03;;
43801;SDS011;29429;51.074;13.764;2023-06-14T05:11:51;6.25;;;4.03;;
43801;SDS011;29429;51.074;13.764;2023-06-14T05:14:20;6.60;;;3.95;;
43801;SDS011;29429;51.074;13.764;2023-06-14T05:16:50;5.70;;;4.20;;
43801;SDS011;29429;51.074;13.764;2023-06-14T05:19:17;5.57;;;3.50;;
43801;SDS011;29429;51.074;13.764;2023-06-14T05:21:44;15.98;;;4.80;;
43801;SDS011;29429;51.074;13.764;2023-06-14T05:24:12;7.45;;;3.97;;
43801;SDS011;29429;51.074;13.764;2023-06-14T05:26:43;7.22;;;3.42;;
43801;SDS011;29429;51.074;13.764;2023-06-14T05:29:10;5.13;;;3.17;;
43801;SDS011;29429;51.074;13.764;2023-06-14T05:31:38;4.63;;;3.35;;
43801;SDS011;29429;51.074;13.764;2023-06-14T05:34:05;13.00;;;4.43;;
43801;SDS011;29429;51.074;13.764;2023-06-14T05:36:32;6.90;;;4.00;;
43801;SDS011;29429;51.074;13.764;2023-06-14T05:38:59;10.90;;;4.47;;
43801;SDS011;29429;51.074;13.764;2023-06-14T05:41:29;9.13;;;4.50;;
43801;SDS011;29429;51.074;13.764;2023-06-14T05:43:56;14.07;;;4.25;;
43801;SDS011;29429;51.074;13.764;2023-06-14T05:46:24;11.52;;;4.57;;
43801;SDS011;29429;51.074;13.764;2023-06-14T05:48:52;9.82;;;4.82;;
43801;SDS011;29429;51.074;13.764;2023-06-14T05:51:21;13.45;;;4.88;;
43801;SDS011;29429;51.074;13.764;2023-06-14T05:53:53;7.47;;;4.38;;
43801;SDS011;29429;51.074;13.764;2023-06-14T05:56:20;5.07;;;4.28;;
43801;SDS011;29429;51.074;13.764;2023-06-14T05:58:47;5.47;;;4.00;;
43801;SDS011;29429;51.074;13.764;2023-06-14T06:01:15;7.72;;;4.35;;
43801;SDS011;29429;51.074;13.764;2023-06-14T06:03:42;5.20;;;3.97;;
43801;SDS011;29429;51.074;13.764;2023-06-14T06:06:13;7.78;;;3.90;;
43801;SDS011;29429;51.074;13.764;2023-06-14T06:08:40;8.73;;;4.22;;
43801;SDS011;29429;51.074;13.764;2023-06-14T06:11:07;6.95;;;3.90;;
43801;SDS011;29429;51.074;13.764;2023-06-14T06:13:35;4.38;;;3.55;;
43801;SDS011;29429;51.074;13.764;2023-06-14T06:16:02;8.60;;;4.55;;
43801;SDS011;29429;51.074;13.764;2023-06-14T06:18:30;5.72;;;3.80;;
43801;SDS011;29429;51.074;13.764;2023-06-14T06:20:57;7.10;;;4.22;;
43801;SDS011;29429;51.074;13.764;2023-06-14T06:23:24;5.32;;;3.40;;
43801;SDS011;29429;51.074;13.764;2023-06-14T06:25:52;4.85;;;3.63;;
43801;SDS011;29429;51.074;13.764;2023-06-14T06:28:19;6.68;;;3.70;;
43801;SDS011;29429;51.074;13.764;2023-06-14T06:30:46;7.57;;;3.60;;
43801;SDS011;29429;51.074;13.764;2023-06-14T06:33:13;3.90;;;3.20;;
43801;SDS011;29429;51.074;13.764;2023-06-14T06:35:41;5.10;;;3.60;;
43801;SDS011;29429;51.074;13.764;2023-06-14T06:38:09;5.07;;;3.28;;
43801;SDS011;29429;51.074;13.764;2023-06-14T06:40:36;10.13;;;3.50;;
43801;SDS011;29429;51.074;13.764;2023-06-14T06:43:03;3.50;;;2.78;;
43801;SDS011;29429;51.074;13.764;2023-06-14T06:45:41;7.22;;;3.25;;
43801;SDS011;29429;51.074;13.764;2023-06-14T06:48:09;4.50;;;3.40;;
43801;SDS011;29429;51.074;13.764;2023-06-14T06:50:36;5.25;;;3.10;;
43801;SDS011;29429;51.074;13.764;2023-06-14T06:53:04;5.72;;;3.10;;
43801;SDS011;29429;51.074;13.764;2023-06-14T06:55:31;3.63;;;2.80;;
43801;SDS011;29429;51.074;13.764;2023-06-14T06:57:59;7.28;;;3.17;;
43801;SDS011;29429;51.074;13.764;2023-06-14T07:00:26;3.63;;;3.03;;
43801;SDS011;29429;51.074;13.764;2023-06-14T07:02:54;5.95;;;3.30;;
43801;SDS011;29429;51.074;13.764;2023-06-14T07:05:21;4.03;;;2.92;;
43801;SDS011;29429;51.074;13.764;2023-06-14T07:07:49;4.43;;;3.10;;
43801;SDS011;29429;51.074;13.764;2023-06-14T07:10:16;4.32;;;3.45;;
43801;SDS011;29429;51.074;13.764;2023-06-14T07:12:43;5.43;;;3.25;;
43801;SDS011;29429;51.074;13.764;2023-06-14T07:15:10;6.50;;;3.53;;
43801;SDS011;29429;51.074;13.764;2023-06-14T07:17:39;4.95;;;3.50;;
43801;SDS011;29429;51.074;13.764;2023-06-14T07:20:06;3.53;;;2.70;;
43801;SDS011;29429;51.074;13.764;2023-06-14T07:22:38;5.03;;;3.53;;
43801;SDS011;29429;51.074;13.764;2023-06-14T07:25:12;3.85;;;3.35;;
43801;SDS011;29429;51.074;13.764;2023-06-14T07:27:42;3.70;;;2.97;;
43801;SDS011;29429;51.074;13.764;2023-06-14T07:30:10;3.40;;;2.85;;
43801;SDS011;29429;51.074;13.764;2023-06-14T07:32:37;3.55;;;2.90;;
43801;SDS011;29429;51.074;13.764;2023-06-14T07:35:05;5.80;;;3.60;;
43801;SDS011;29429;51.074;13.764;2023-06-14T07:37:33;4.45;;;3.28;;
43801;SDS011;29429;51.074;13.764;2023-06-14T07:40:00;4.97;;;2.95;;
43801;SDS011;29429;51.074;13.764;2023-06-14T07:42:29;3.47;;;3.10;;
43801;SDS011;29429;51.074;13.764;2023-06-14T07:44:56;5.45;;;2.92;;
43801;SDS011;29429;51.074;13.764;2023-06-14T07:47:23;5.05;;;3.05;;
43801;SDS011;29429;51.074;13.764;2023-06-14T07:49:50;4.43;;;3.10;;
43801;SDS011;29429;51.074;13.764;2023-06-14T07:52:17;5.13;;;2.63;;
43801;SDS011;29429;51.074;13.764;2023-06-14T07:54:44;4.35;;;2.80;;
43801;SDS011;29429;51.074;13.764;2023-06-14T07:57:12;5.25;;;2.58;;
43801;SDS011;29429;51.074;13.764;2023-06-14T07:59:39;5.57;;;2.58;;
43801;SDS011;29429;51.074;13.764;2023-06-14T08:02:06;3.90;;;2.45;;
43801;SDS011;29429;51.074;13.764;2023-06-14T08:04:33;3.25;;;2.60;;
43801;SDS011;29429;51.074;13.764;2023-06-14T08:07:00;4.28;;;2.60;;
43801;SDS011;29429;51.074;13.764;2023-06-14T08:09:27;3.15;;;2.63;;
43801;SDS011;29429;51.074;13.764;2023-06-14T08:11:55;3.05;;;2.30;;
43801;SDS011;29429;51.074;13.764;2023-06-14T08:14:23;2.80;;;2.15;;
43801;SDS011;29429;51.074;13.764;2023-06-14T08:16:50;3.30;;;2.50;;
43801;SDS011;29429;51.074;13.764;2023-06-14T08:19:17;5.07;;;1.95;;
43801;SDS011;29429;51.074;13.764;2023-06-14T08:21:46;2.85;;;2.20;;
43801;SDS011;29429;51.074;13.764;2023-06-14T08:24:13;3.45;;;2.00;;
43801;SDS011;29429;51.074;13.764;2023-06-14T08:26:44;2.65;;;2.15;;
43801;SDS011;29429;51.074;13.764;2023-06-14T08:29:12;4.32;;;2.03;;
43801;SDS011;29429;51.074;13.764;2023-06-14T08:31:39;2.63;;;1.50;;
43801;SDS011;29429;51.074;13.764;2023-06-14T08:34:06;2.83;;;1.85;;
43801;SDS011;29429;51.074;13.764;2023-06-14T08:36:34;7.50;;;1.75;;
43801;SDS011;29429;51.074;13.764;2023-06-14T08:39:02;10.25;;;2.30;;
43801;SDS011;29429;51.074;13.764;2023-06-14T08:41:29;3.03;;;2.17;;
43801;SDS011;29429;51.074;13.764;2023-06-14T08:43:56;3.33;;;1.83;;
43801;SDS011;29429;51.074;13.764;2023-06-14T08:46:25;3.72;;;1.70;;
43801;SDS011;29429;51.074;13.764;2023-06-14T08:48:56;7.47;;;2.40;;
43801;SDS011;29429;51.074;13.764;2023-06-14T08:51:24;10.30;;;2.47;;
43801;SDS011;29429;51.074;13.764;2023-06-14T08:53:54;4.35;;;1.95;;
43801;SDS011;29429;51.074;13.764;2023-06-14T08:56:27;3.10;;;1.85;;
43801;SDS011;29429;51.074;13.764;2023-06-14T08:58:56;3.03;;;2.22;;
43801;SDS011;29429;51.074;13.764;2023-06-14T09:01:27;4.43;;;2.63;;
43801;SDS011;29429;51.074;13.764;2023-06-14T09:03:55;7.57;;;2.28;;
43801;SDS011;29429;51.074;13.764;2023-06-14T09:06:23;3.50;;;2.50;;
43801;SDS011;29429;51.074;13.764;2023-06-14T09:08:51;9.25;;;3.08;;
43801;SDS011;29429;51.074;13.764;2023-06-14T09:11:19;5.32;;;2.67;;
43801;SDS011;29429;51.074;13.764;2023-06-14T09:13:47;3.55;;;2.55;;
43801;SDS011;29429;51.074;13.764;2023-06-14T09:16:16;5.72;;;2.75;;
43801;SDS011;29429;51.074;13.764;2023-06-14T09:18:46;3.28;;;2.42;;
43801;SDS011;29429;51.074;13.764;2023-06-14T09:21:15;3.22;;;2.22;;
43801;SDS011;29429;51.074;13.764;2023-06-14T09:23:44;3.63;;;2.58;;
43801;SDS011;29429;51.074;13.764;2023-06-14T09:26:18;3.90;;;2.70;;
43801;SDS011;29429;51.074;13.764;2023-06-14T09:28:49;5.45;;;2.78;;
43801;SDS011;29429;51.074;13.764;2023-06-14T09:31:17;4.10;;;3.25;;
43801;SDS011;29429;51.074;13.764;2023-06-14T09:33:47;4.35;;;3.08;;
43801;SDS011;29429;51.074;13.764;2023-06-14T09:36:16;3.90;;;2.80;;
43801;SDS011;29429;51.074;13.764;2023-06-14T09:38:54;2.55;;;2.35;;
43801;SDS011;29429;51.074;13.764;2023-06-14T09:41:36;3.22;;;2.60;;
43801;SDS011;29429;51.074;13.764;2023-06-14T09:44:06;3.38;;;2.60;;
43801;SDS011;29429;51.074;13.764;2023-06-14T09:46:42;5.22;;;2.50;;
43801;SDS011;29429;51.074;13.764;2023-06-14T09:49:10;3.35;;;2.47;;
43801;SDS011;29429;51.074;13.764;2023-06-14T09:51:42;5.65;;;3.13;;
43801;SDS011;29429;51.074;13.764;2023-06-14T09:54:22;4.57;;;2.50;;
43801;SDS011;29429;51.074;13.764;2023-06-14T09:56:57;7.43;;;2.78;;
43801;SDS011;29429;51.074;13.764;2023-06-14T09:59:26;4.32;;;2.75;;
43801;SDS011;29429;51.074;13.764;2023-06-14T10:02:05;5.38;;;2.65;;
43801;SDS011;29429;51.074;13.764;2023-06-14T10:04:50;3.45;;;2.45;;
43801;SDS011;29429;51.074;13.764;2023-06-14T10:07:27;3.63;;;2.42;;
43801;SDS011;29429;51.074;13.764;2023-06-14T10:09:59;3.88;;;2.35;;
43801;SDS011;29429;51.074;13.764;2023-06-14T10:12:27;4.28;;;2.35;;
43801;SDS011;29429;51.074;13.764;2023-06-14T10:14:55;5.63;;;2.42;;
43801;SDS011;29429;51.074;13.764;2023-06-14T10:17:34;5.22;;;2.47;;
43801;SDS011;29429;51.074;13.764;2023-06-14T10:20:21;7.95;;;2.67;;
43801;SDS011;29429;51.074;13.764;2023-06-14T10:23:02;4.40;;;2.20;;
43801;SDS011;29429;51.074;13.764;2023-06-14T10:25:38;4.25;;;2.20;;
43801;SDS011;29429;51.074;13.764;2023-06-14T10:28:18;11.20;;;3.72;;
43801;SDS011;29429;51.074;13.764;2023-06-14T10:31:06;5.65;;;2.35;;
43801;SDS011;29429;51.074;13.764;2023-06-14T10:41:28;5.45;;;2.72;;
43801;SDS011;29429;51.074;13.764;2023-06-14T10:46:53;4.13;;;2.58;;
43801;SDS011;29429;51.074;13.764;2023-06-14T10:52:07;5.38;;;2.60;;
43801;SDS011;29429;51.074;13.764;2023-06-14T10:57:47;5.22;;;2.90;;
43801;SDS011;29429;51.074;13.764;2023-06-14T11:00:28;3.22;;;2.63;;
43801;SDS011;29429;51.074;13.764;2023-06-14T11:03:43;5.30;;;2.92;;
43801;SDS011;29429;51.074;13.764;2023-06-14T11:06:25;4.82;;;2.70;;
43801;SDS011;29429;51.074;13.764;2023-06-14T11:13:45;4.25;;;2.85;;
43801;SDS011;29429;51.074;13.764;2023-06-14T11:16:29;8.13;;;3.13;;
43801;SDS011;29429;51.074;13.764;2023-06-14T11:28:28;4.47;;;2.88;;
43801;SDS011;29429;51.074;13.764;2023-06-14T11:40:24;6.63;;;2.78;;
43801;SDS011;29429;51.074;13.764;2023-06-14T11:48:19;8.30;;;2.97;;
43801;SDS011;29429;51.074;13.764;2023-06-14T11:50:59;7.30;;;2.90;;
43801;SDS011;29429;51.074;13.764;2023-06-14T11:54:56;6.45;;;2.40;;
43801;SDS011;29429;51.074;13.764;2023-06-14T11:58:07;4.72;;;2.80;;
43801;SDS011;29429;51.074;13.764;2023-06-14T12:00:35;3.40;;;2.55;;
43801;SDS011;29429;51.074;13.764;2023-06-14T12:03:03;3.88;;;2.70;;
43801;SDS011;29429;51.074;13.764;2023-06-14T12:05:32;5.60;;;2.85;;
43801;SDS011;29429;51.074;13.764;2023-06-14T12:08:02;5.90;;;2.42;;
43801;SDS011;29429;51.074;13.764;2023-06-14T12:10:40;3.63;;;2.90;;
43801;SDS011;29429;51.074;13.764;2023-06-14T12:13:10;4.13;;;2.53;;
43801;SDS011;29429;51.074;13.764;2023-06-14T12:15:37;4.40;;;2.65;;
43801;SDS011;29429;51.074;13.764;2023-06-14T12:18:05;6.43;;;2.70;;
43801;SDS011;29429;51.074;13.764;2023-06-14T12:20:35;3.85;;;2.60;;
43801;SDS011;29429;51.074;13.764;2023-06-14T12:23:03;5.88;;;2.90;;
43801;SDS011;29429;51.074;13.764;2023-06-14T12:25:34;3.30;;;2.42;;
43801;SDS011;29429;51.074;13.764;2023-06-14T12:28:05;3.17;;;2.88;;
43801;SDS011;29429;51.074;13.764;2023-06-14T12:30:35;3.70;;;2.70;;
43801;SDS011;29429;51.074;13.764;2023-06-14T12:33:04;7.85;;;2.83;;
43801;SDS011;29429;51.074;13.764;2023-06-14T12:35:32;4.93;;;2.80;;
43801;SDS011;29429;51.074;13.764;2023-06-14T12:38:00;6.38;;;3.10;;
43801;SDS011;29429;51.074;13.764;2023-06-14T12:40:27;6.57;;;3.08;;
43801;SDS011;29429;51.074;13.764;2023-06-14T12:42:54;5.35;;;3.20;;
43801;SDS011;29429;51.074;13.764;2023-06-14T12:45:22;3.33;;;2.63;;
43801;SDS011;29429;51.074;13.764;2023-06-14T12:47:49;7.47;;;2.70;;
43801;SDS011;29429;51.074;13.764;2023-06-14T12:50:18;7.20;;;2.80;;
43801;SDS011;29429;51.074;13.764;2023-06-14T12:52:48;6.32;;;3.17;;
43801;SDS011;29429;51.074;13.764;2023-06-14T12:55:15;9.07;;;3.40;;
43801;SDS011;29429;51.074;13.764;2023-06-14T12:57:43;5.60;;;2.47;;
43801;SDS011;29429;51.074;13.764;2023-06-14T13:00:10;8.93;;;2.90;;
43801;SDS011;29429;51.074;13.764;2023-06-14T13:02:39;3.92;;;2.38;;
43801;SDS011;29429;51.074;13.764;2023-06-14T13:05:07;4.65;;;2.28;;
43801;SDS011;29429;51.074;13.764;2023-06-14T13:07:34;2.88;;;2.28;;
43801;SDS011;29429;51.074;13.764;2023-06-14T13:10:02;3.03;;;2.38;;
43801;SDS011;29429;51.074;13.764;2023-06-14T13:12:30;3.90;;;2.60;;
43801;SDS011;29429;51.074;13.764;2023-06-14T13:14:57;2.97;;;2.50;;
43801;SDS011;29429;51.074;13.764;2023-06-14T13:17:23;6.45;;;3.03;;
43801;SDS011;29429;51.074;13.764;2023-06-14T13:19:50;12.23;;;3.28;;
43801;SDS011;29429;51.074;13.764;2023-06-14T13:22:17;5.03;;;2.65;;
43801;SDS011;29429;51.074;13.764;2023-06-14T13:24:45;4.25;;;2.58;;
43801;SDS011;29429;51.074;13.764;2023-06-14T13:27:12;4.40;;;2.70;;
43801;SDS011;29429;51.074;13.764;2023-06-14T13:29:40;5.97;;;2.70;;
43801;SDS011;29429;51.074;13.764;2023-06-14T13:32:07;7.35;;;3.10;;
43801;SDS011;29429;51.074;13.764;2023-06-14T13:34:35;5.18;;;2.47;;
43801;SDS011;29429;51.074;13.764;2023-06-14T13:37:02;7.00;;;3.00;;
43801;SDS011;29429;51.074;13.764;2023-06-14T13:42:51;5.32;;;2.50;;
43801;SDS011;29429;51.074;13.764;2023-06-14T13:45:18;6.75;;;2.08;;
43801;SDS011;29429;51.074;13.764;2023-06-14T13:47:45;5.57;;;2.30;;
43801;SDS011;29429;51.074;13.764;2023-06-14T13:50:15;4.78;;;2.20;;
43801;SDS011;29429;51.074;13.764;2023-06-14T13:52:42;4.22;;;2.25;;
43801;SDS011;29429;51.074;13.764;2023-06-14T13:55:09;4.40;;;2.30;;
43801;SDS011;29429;51.074;13.764;2023-06-14T13:57:37;4.78;;;2.10;;
43801;SDS011;29429;51.074;13.764;2023-06-14T14:00:04;4.32;;;2.45;;
43801;SDS011;29429;51.074;13.764;2023-06-14T14:02:37;2.93;;;2.00;;
43801;SDS011;29429;51.074;13.764;2023-06-14T14:05:06;3.35;;;2.28;;
43801;SDS011;29429;51.074;13.764;2023-06-14T14:07:35;4.53;;;2.22;;
43801;SDS011;29429;51.074;13.764;2023-06-14T14:10:03;6.97;;;1.92;;
43801;SDS011;29429;51.074;13.764;2023-06-14T14:12:30;3.28;;;2.00;;
43801;SDS011;29429;51.074;13.764;2023-06-14T14:14:57;4.80;;;2.28;;
43801;SDS011;29429;51.074;13.764;2023-06-14T14:17:24;2.92;;;1.92;;
43801;SDS011;29429;51.074;13.764;2023-06-14T14:19:52;2.35;;;2.00;;
43801;SDS011;29429;51.074;13.764;2023-06-14T14:22:19;5.07;;;2.15;;
43801;SDS011;29429;51.074;13.764;2023-06-14T14:24:46;3.58;;;2.30;;
43801;SDS011;29429;51.074;13.764;2023-06-14T14:27:13;3.20;;;2.08;;
43801;SDS011;29429;51.074;13.764;2023-06-14T14:29:40;3.90;;;2.10;;
43801;SDS011;29429;51.074;13.764;2023-06-14T14:32:07;3.70;;;2.28;;
43801;SDS011;29429;51.074;13.764;2023-06-14T14:34:39;4.10;;;2.20;;
43801;SDS011;29429;51.074;13.764;2023-06-14T14:37:07;2.60;;;1.98;;
43801;SDS011;29429;51.074;13.764;2023-06-14T14:39:36;2.50;;;2.30;;
43801;SDS011;29429;51.074;13.764;2023-06-14T14:42:04;2.53;;;2.13;;
43801;SDS011;29429;51.074;13.764;2023-06-14T14:44:40;5.05;;;2.47;;
43801;SDS011;29429;51.074;13.764;2023-06-14T14:47:44;5.90;;;2.28;;
43801;SDS011;29429;51.074;13.764;2023-06-14T14:50:11;2.80;;;2.47;;
43801;SDS011;29429;51.074;13.764;2023-06-14T14:52:39;2.45;;;2.25;;
43801;SDS011;29429;51.074;13.764;2023-06-14T14:55:06;3.35;;;2.13;;
43801;SDS011;29429;51.074;13.764;2023-06-14T14:57:33;3.50;;;2.30;;
43801;SDS011;29429;51.074;13.764;2023-06-14T15:00:03;2.55;;;2.22;;
43801;SDS011;29429;51.074;13.764;2023-06-14T15:02:32;2.53;;;2.13;;
43801;SDS011;29429;51.074;13.764;2023-06-14T15:04:59;3.60;;;2.20;;
43801;SDS011;29429;51.074;13.764;2023-06-14T15:07:27;3.90;;;2.38;;
43801;SDS011;29429;51.074;13.764;2023-06-14T15:09:55;3.50;;;2.40;;
43801;SDS011;29429;51.074;13.764;2023-06-14T15:12:22;4.18;;;2.33;;
43801;SDS011;29429;51.074;13.764;2023-06-14T15:14:50;2.40;;;2.10;;
43801;SDS011;29429;51.074;13.764;2023-06-14T15:17:32;2.58;;;2.13;;
43801;SDS011;29429;51.074;13.764;2023-06-14T15:19:59;3.85;;;2.30;;
43801;SDS011;29429;51.074;13.764;2023-06-14T15:22:26;4.72;;;2.33;;
43801;SDS011;29429;51.074;13.764;2023-06-14T15:24:53;3.42;;;2.60;;
43801;SDS011;29429;51.074;13.764;2023-06-14T15:27:21;3.13;;;2.28;;
43801;SDS011;29429;51.074;13.764;2023-06-14T15:29:48;3.00;;;2.45;;
43801;SDS011;29429;51.074;13.764;2023-06-14T15:32:21;2.42;;;2.20;;
43801;SDS011;29429;51.074;13.764;2023-06-14T15:34:48;2.97;;;2.40;;
43801;SDS011;29429;51.074;13.764;2023-06-14T15:37:15;5.15;;;2.60;;
43801;SDS011;29429;51.074;13.764;2023-06-14T15:39:53;3.00;;;2.55;;
43801;SDS011;29429;51.074;13.764;2023-06-14T15:42:33;3.03;;;2.72;;